Time;durP1;ratioP1;P1;durP2;ratioP2;P2;SDS_P1;SDS_P2;PMS_P1;PMS_P2;Temp;Humidity;BMP_temperature;BMP_pressure;BME280_temperature;BME280_humidity;BME280_pressure;Samples;Min_cycle;Max_cycle;Signal;HPM_P1;HPM_P2
2022/05/19 00:01:51;;;;;;;7.80;5.28;;;19.10;94.50;;;;;;5083969;28;20226;-77
2022/05/19 00:04:17;;;;;;;4.80;4.40;;;19.10;94.40;;;;;;5084404;28;20726;-76
2022/05/19 00:06:44;;;;;;;6.97;5.00;;;19.10;94.50;;;;;;5084435;28;20317;-77
2022/05/19 00:09:14;;;;;;;5.60;5.05;;;19.00;94.60;;;;;;5082749;28;20227;-76
2022/05/19 00:11:42;;;;;;;7.10;4.80;;;19.00;94.70;;;;;;5084565;28;20237;-77
2022/05/19 00:14:09;;;;;;;7.25;4.72;;;19.00;94.80;;;;;;5083838;28;20313;-77
2022/05/19 00:16:36;;;;;;;5.53;4.97;;;19.00;94.90;;;;;;5084118;28;20736;-77
2022/05/19 00:19:03;;;;;;;8.23;4.88;;;19.00;95.30;;;;;;5084103;28;20283;-77
2022/05/19 00:21:30;;;;;;;5.65;5.05;;;18.90;94.90;;;;;;5082597;28;20695;-77
2022/05/19 00:23:57;;;;;;;5.55;5.05;;;18.90;95.10;;;;;;5084805;28;20756;-77
2022/05/19 00:26:25;;;;;;;5.63;5.13;;;18.90;95.10;;;;;;5083646;28;20231;-77
2022/05/19 00:28:52;;;;;;;7.80;4.82;;;18.90;95.20;;;;;;5084938;28;20222;-77
2022/05/19 00:31:19;;;;;;;6.50;4.88;;;18.90;95.10;;;;;;5082086;28;20248;-78
2022/05/19 00:33:45;;;;;;;4.80;4.40;;;18.80;95.20;;;;;;5084675;28;20598;-78
2022/05/19 00:36:15;;;;;;;7.22;5.13;;;18.80;95.20;;;;;;5082274;28;20230;-77
2022/05/19 00:38:42;;;;;;;6.35;4.88;;;18.80;95.40;;;;;;5084942;28;20579;-77
2022/05/19 00:41:10;;;;;;;5.47;4.90;;;18.80;95.40;;;;;;5083459;28;20737;-77
2022/05/19 00:43:45;;;;;;;8.93;5.05;;;18.80;95.50;;;;;;5083774;28;20280;-77
2022/05/19 00:46:19;;;;;;;8.25;5.20;;;18.70;95.70;;;;;;5083602;28;20313;-77
2022/05/19 00:48:50;;;;;;;7.65;5.30;;;18.70;96.00;;;;;;5083511;28;20279;-77
2022/05/19 00:51:18;;;;;;;6.18;5.10;;;18.70;95.80;;;;;;5083363;28;20229;-77
2022/05/19 00:53:49;;;;;;;6.60;5.90;;;18.70;95.80;;;;;;5084020;28;20485;-77
2022/05/19 00:56:22;;;;;;;6.53;5.40;;;18.60;96.00;;;;;;5083363;28;20336;-77
2022/05/19 00:58:56;;;;;;;6.03;5.35;;;18.60;96.00;;;;;;5084551;28;20222;-77
2022/05/19 01:01:23;;;;;;;6.95;4.93;;;18.60;96.10;;;;;;5081883;28;20242;-77
2022/05/19 01:03:55;;;;;;;6.65;4.90;;;18.60;96.10;;;;;;5084630;28;20672;-78
2022/05/19 01:06:24;;;;;;;7.55;5.20;;;18.50;96.20;;;;;;5083896;28;20234;-78
2022/05/19 01:08:56;;;;;;;8.63;5.63;;;18.50;96.30;;;;;;5085083;28;20226;-77
2022/05/19 01:11:23;;;;;;;7.70;5.20;;;18.50;96.40;;;;;;5081975;28;20605;-77
2022/05/19 01:13:52;;;;;;;6.10;5.25;;;18.50;96.40;;;;;;5084568;28;20563;-78
2022/05/19 01:16:20;;;;;;;6.22;5.07;;;18.40;96.40;;;;;;5084163;28;20339;-78
2022/05/19 01:18:47;;;;;;;5.70;5.10;;;18.40;96.30;;;;;;5084908;28;20302;-78
2022/05/19 01:21:17;;;;;;;6.57;5.30;;;18.40;96.30;;;;;;5083867;28;20256;-78
2022/05/19 01:24:01;;;;;;;5.53;4.90;;;18.40;96.50;;;;;;5084422;28;20245;-78
2022/05/19 01:26:43;;;;;;;5.47;4.97;;;18.40;96.50;;;;;;5084967;28;20763;-78
2022/05/19 01:29:12;;;;;;;7.13;4.82;;;18.40;96.60;;;;;;5087132;28;20231;-77
2022/05/19 01:31:45;;;;;;;5.65;5.07;;;18.40;96.50;;;;;;5087729;28;20569;-78
2022/05/19 01:34:12;;;;;;;5.90;5.35;;;18.30;96.70;;;;;;5087447;28;20932;-77
2022/05/19 01:36:40;;;;;;;7.25;5.45;;;18.40;96.80;;;;;;5087830;28;20218;-78
2022/05/19 01:39:10;;;;;;;7.53;5.10;;;18.30;96.80;;;;;;5088327;28;20722;-78
2022/05/19 01:41:47;;;;;;;6.85;5.25;;;18.30;96.80;;;;;;5088281;28;20233;-78
2022/05/19 01:44:35;;;;;;;5.32;4.82;;;18.30;97.20;;;;;;5088179;28;20309;-77
2022/05/19 01:47:07;;;;;;;5.75;5.15;;;18.20;97.20;;;;;;5089107;28;20238;-77
2022/05/19 01:49:39;;;;;;;7.13;5.65;;;18.20;97.10;;;;;;5089129;28;20226;-78
2022/05/19 01:52:12;;;;;;;6.00;5.03;;;18.20;97.20;;;;;;5088333;28;20292;-79
2022/05/19 01:54:47;;;;;;;5.68;4.97;;;18.20;97.20;;;;;;5088978;28;20226;-78
2022/05/19 01:57:21;;;;;;;7.40;5.10;;;18.20;97.40;;;;;;5090583;28;20225;-78
2022/05/19 01:59:57;;;;;;;7.85;5.53;;;18.10;97.40;;;;;;5089117;28;20584;-79
2022/05/19 02:02:32;;;;;;;8.18;5.32;;;18.10;97.50;;;;;;5089659;28;20695;-78
2022/05/19 02:05:12;;;;;;;5.97;5.35;;;18.10;97.40;;;;;;5087347;28;20306;-79
2022/05/19 02:07:41;;;;;;;9.88;5.72;;;18.10;97.50;;;;;;5088789;28;20226;-79
2022/05/19 02:10:13;;;;;;;6.70;5.20;;;18.10;97.40;;;;;;5088506;28;20227;-79
2022/05/19 02:12:43;;;;;;;6.40;5.72;;;18.00;97.60;;;;;;5089403;28;20238;-79
2022/05/19 02:15:14;;;;;;;6.90;5.55;;;18.00;97.60;;;;;;5087994;28;20226;-79
2022/05/19 02:17:43;;;;;;;6.47;5.68;;;18.00;97.70;;;;;;5089998;28;20222;-79
2022/05/19 02:20:14;;;;;;;5.50;5.00;;;18.00;97.80;;;;;;5088765;28;20262;-79
2022/05/19 02:22:43;;;;;;;5.80;5.13;;;18.00;97.80;;;;;;5079661;28;20254;-79
2022/05/19 02:25:15;;;;;;;5.97;5.32;;;18.00;97.70;;;;;;5086585;28;20229;-79
2022/05/19 02:27:48;;;;;;;6.32;5.50;;;17.90;97.90;;;;;;5088974;28;20237;-78
2022/05/19 02:30:18;;;;;;;5.68;4.97;;;17.90;98.00;;;;;;5087780;28;20229;-78
2022/05/19 02:32:45;;;;;;;6.93;5.93;;;17.90;98.00;;;;;;5089025;28;20234;-79
2022/05/19 02:35:13;;;;;;;6.30;5.23;;;17.90;97.90;;;;;;5091455;28;20225;-79
2022/05/19 02:37:40;;;;;;;6.50;5.80;;;17.90;97.90;;;;;;5090517;28;20225;-79
2022/05/19 02:40:10;;;;;;;6.68;5.68;;;17.80;98.00;;;;;;5090996;28;20476;-79
2022/05/19 02:42:37;;;;;;;7.78;6.80;;;17.80;98.10;;;;;;5091039;28;20733;-79
2022/05/19 02:45:07;;;;;;;5.67;5.17;;;17.80;98.20;;;;;;5088688;28;20230;-78
2022/05/19 02:47:34;;;;;;;13.27;6.07;;;17.70;98.20;;;;;;5088173;28;20223;-78
2022/05/19 02:50:02;;;;;;;6.30;5.70;;;17.70;98.20;;;;;;5088535;28;20230;-79
2022/05/19 02:52:28;;;;;;;6.47;5.53;;;17.70;98.20;;;;;;5088460;28;20231;-78
2022/05/19 02:54:55;;;;;;;7.43;5.70;;;17.70;98.20;;;;;;5087643;28;20309;-78
2022/05/19 02:57:22;;;;;;;8.65;5.70;;;17.60;98.30;;;;;;5087523;28;20218;-78
2022/05/19 02:59:49;;;;;;;6.10;5.50;;;17.60;98.30;;;;;;5087029;28;20276;-78
2022/05/19 03:02:17;;;;;;;6.38;5.78;;;17.60;98.40;;;;;;5087454;28;20735;-78
2022/05/19 03:04:44;;;;;;;6.20;5.60;;;17.60;98.60;;;;;;5087012;28;20284;-78
2022/05/19 03:07:11;;;;;;;9.20;5.93;;;17.50;98.60;;;;;;5086050;28;20223;-77
2022/05/19 03:09:40;;;;;;;6.17;5.57;;;17.50;98.60;;;;;;5088199;28;20344;-78
2022/05/19 03:12:09;;;;;;;6.73;5.50;;;17.50;98.70;;;;;;5085445;28;20259;-78
2022/05/19 03:14:35;;;;;;;6.97;5.73;;;17.50;98.80;;;;;;5087419;28;20223;-78
2022/05/19 03:17:05;;;;;;;7.77;5.73;;;17.40;98.80;;;;;;5087168;28;20223;-77
2022/05/19 03:19:33;;;;;;;6.37;5.73;;;17.40;98.90;;;;;;5088766;28;20222;-78
2022/05/19 03:21:59;;;;;;;8.13;5.77;;;17.40;99.00;;;;;;5088266;28;20233;-78
2022/05/19 03:24:26;;;;;;;7.00;6.27;;;17.30;99.00;;;;;;5084380;28;20234;-78
2022/05/19 03:26:53;;;;;;;6.97;6.23;;;17.30;99.10;;;;;;5087725;28;20231;-79
2022/05/19 03:29:20;;;;;;;6.93;6.10;;;17.30;99.10;;;;;;5087716;28;20294;-78
2022/05/19 03:31:47;;;;;;;7.07;6.23;;;17.20;99.20;;;;;;5085546;28;20560;-77
2022/05/19 03:34:16;;;;;;;8.43;6.30;;;17.20;99.30;;;;;;5086814;28;20227;-78
2022/05/19 03:36:45;;;;;;;7.13;6.07;;;17.20;99.30;;;;;;5087500;28;20232;-78
2022/05/19 03:39:13;;;;;;;8.07;6.43;;;17.20;99.50;;;;;;5085863;27;20251;-78
2022/05/19 03:41:40;;;;;;;7.57;6.53;;;17.20;99.50;;;;;;5085693;27;20299;-77
2022/05/19 03:44:10;;;;;;;6.43;5.83;;;17.20;99.50;;;;;;5087182;27;20225;-78
2022/05/19 03:46:38;;;;;;;8.80;6.70;;;17.10;99.50;;;;;;5087577;27;20559;-78
2022/05/19 03:49:05;;;;;;;6.87;6.10;;;17.10;99.60;;;;;;5086368;27;20227;-78
2022/05/19 03:51:33;;;;;;;8.13;6.10;;;17.10;99.60;;;;;;5086875;27;20228;-78
2022/05/19 03:54:01;;;;;;;8.13;6.23;;;17.10;99.80;;;;;;5088156;27;20233;-78
2022/05/19 03:56:28;;;;;;;7.77;6.50;;;17.10;99.80;;;;;;5086586;27;20221;-78
2022/05/19 03:58:55;;;;;;;6.93;6.23;;;17.20;99.90;;;;;;5086648;28;20367;-78
2022/05/19 04:01:22;;;;;;;9.80;6.00;;;17.20;99.90;;;;;;5086081;27;20606;-79
2022/05/19 04:03:50;;;;;;;8.57;6.88;;;17.20;99.90;;;;;;5084578;28;20234;-78
2022/05/19 04:06:17;;;;;;;7.05;6.35;;;17.20;99.90;;;;;;5085786;27;20233;-79
2022/05/19 04:08:48;;;;;;;6.37;5.77;;;17.20;99.90;;;;;;5086395;27;20223;-77
2022/05/19 04:11:16;;;;;;;6.70;6.00;;;17.20;99.90;;;;;;5084559;27;20317;-78
2022/05/19 04:13:43;;;;;;;7.73;6.57;;;17.20;99.90;;;;;;5084797;27;20222;-78
2022/05/19 04:16:11;;;;;;;7.17;6.00;;;17.30;99.90;;;;;;5085193;27;20227;-78
2022/05/19 04:18:38;;;;;;;8.50;6.83;;;17.30;99.90;;;;;;5085861;28;20307;-78
2022/05/19 04:21:06;;;;;;;7.90;6.05;;;17.30;99.90;;;;;;5083903;28;20219;-80
2022/05/19 04:23:33;;;;;;;8.47;6.07;;;17.30;99.90;;;;;;5059007;28;20819;-81
2022/05/19 04:26:00;;;;;;;10.30;6.67;;;17.30;99.90;;;;;;5053978;28;20230;-80
2022/05/19 04:28:30;;;;;;;7.83;7.03;;;17.30;99.90;;;;;;5064083;28;20224;-79
2022/05/19 04:30:57;;;;;;;8.67;6.70;;;17.30;99.90;;;;;;5076984;28;20227;-79
2022/05/19 04:33:24;;;;;;;9.70;6.47;;;17.30;99.90;;;;;;5085278;28;21189;-80
2022/05/19 04:35:51;;;;;;;7.80;7.03;;;17.30;99.90;;;;;;5087022;28;20305;-81
2022/05/19 04:38:18;;;;;;;7.37;6.67;;;17.40;99.90;;;;;;5075513;28;20301;-81
2022/05/19 04:40:48;;;;;;;7.97;6.57;;;17.40;99.90;;;;;;5073143;28;20229;-82
2022/05/19 04:43:19;;;;;;;7.10;6.50;;;17.40;99.90;;;;;;5076552;28;20596;-82
2022/05/19 04:45:48;;;;;;;8.27;6.40;;;17.50;99.90;;;;;;5080643;28;20228;-85
2022/05/19 04:48:15;;;;;;;7.93;6.23;;;17.50;99.90;;;;;;5081545;28;20223;-81
2022/05/19 04:50:42;;;;;;;9.13;6.20;;;17.50;99.90;;;;;;5079487;28;20366;-83
2022/05/19 04:53:09;;;;;;;7.40;6.70;;;17.50;99.90;;;;;;5073262;28;20221;-81
2022/05/19 04:55:37;;;;;;;7.50;6.47;;;17.50;99.90;;;;;;5053492;28;20727;-82
2022/05/19 04:58:04;;;;;;;7.27;6.27;;;17.60;99.90;;;;;;5059424;28;20300;-82
2022/05/19 05:00:33;;;;;;;6.95;6.25;;;17.60;99.90;;;;;;5075474;28;20672;-83
2022/05/19 05:03:01;;;;;;;7.07;6.30;;;17.70;99.90;;;;;;5085293;28;20379;-81
2022/05/19 05:05:28;;;;;;;7.97;6.13;;;17.80;99.90;;;;;;5073982;27;20234;-82
2022/05/19 05:07:57;;;;;;;6.70;6.10;;;17.80;99.90;;;;;;5066071;28;20220;-81
2022/05/19 05:10:24;;;;;;;7.07;5.77;;;17.90;99.90;;;;;;5060785;28;20237;-81
2022/05/19 05:12:51;;;;;;;6.35;5.75;;;18.00;99.90;;;;;;5067167;28;20251;-82
2022/05/19 05:15:18;;;;;;;6.60;5.80;;;18.10;99.90;;;;;;5063543;28;20245;-81
2022/05/19 05:17:46;;;;;;;7.88;5.93;;;18.20;99.90;;;;;;5060852;28;20224;-83
2022/05/19 05:20:14;;;;;;;7.55;5.28;;;18.30;99.90;;;;;;5063424;28;20219;-81
2022/05/19 05:22:41;;;;;;;6.82;5.93;;;18.40;99.80;;;;;;5064689;28;20354;-81
2022/05/19 05:25:13;;;;;;;7.78;5.93;;;18.50;99.70;;;;;;5056852;28;20704;-81
2022/05/19 05:27:39;;;;;;;6.38;5.28;;;18.60;99.60;;;;;;5059272;28;20227;-82
2022/05/19 05:30:08;;;;;;;6.57;5.75;;;18.70;99.40;;;;;;5061212;28;20737;-82
2022/05/19 05:32:35;;;;;;;6.47;5.88;;;18.80;99.40;;;;;;5066003;28;20310;-83
2022/05/19 05:35:02;;;;;;;6.60;5.88;;;18.90;99.20;;;;;;5058768;28;20220;-84
2022/05/19 05:37:30;;;;;;;7.45;5.47;;;19.00;99.10;;;;;;5065435;28;20215;-83
2022/05/19 05:39:57;;;;;;;7.53;6.10;;;19.20;99.00;;;;;;5063739;28;20235;-82
2022/05/19 05:42:24;;;;;;;6.68;5.93;;;19.30;98.80;;;;;;5063054;28;20242;-81
2022/05/19 05:44:51;;;;;;;7.28;4.93;;;19.30;98.60;;;;;;5066999;28;20238;-80
2022/05/19 05:47:18;;;;;;;7.18;5.38;;;19.40;98.60;;;;;;5068646;28;20231;-81
2022/05/19 05:49:45;;;;;;;6.43;5.32;;;19.50;98.50;;;;;;5065788;28;20219;-85
2022/05/19 05:52:11;;;;;;;6.38;5.55;;;19.50;98.20;;;;;;5057061;28;20230;-81
2022/05/19 05:54:39;;;;;;;6.40;5.32;;;19.60;98.20;;;;;;5063091;28;20608;-81
2022/05/19 05:57:06;;;;;;;6.75;5.60;;;19.60;98.20;;;;;;5066620;28;20556;-81
2022/05/19 05:59:33;;;;;;;5.78;5.18;;;19.70;98.10;;;;;;5059610;28;20230;-82
2022/05/19 06:02:00;;;;;;;6.60;5.40;;;19.70;98.00;;;;;;5060836;28;20219;-83
2022/05/19 06:04:26;;;;;;;6.00;5.32;;;19.80;98.00;;;;;;5054757;28;20964;-81
2022/05/19 06:06:53;;;;;;;8.60;5.75;;;19.80;97.90;;;;;;5068190;28;20790;-81
2022/05/19 06:09:20;;;;;;;5.95;5.32;;;19.80;97.70;;;;;;5063400;28;20223;-83
2022/05/19 06:11:48;;;;;;;6.88;5.88;;;19.90;97.70;;;;;;5053057;28;20233;-82
2022/05/19 06:14:14;;;;;;;6.22;5.20;;;20.00;97.80;;;;;;5058179;28;20763;-82
2022/05/19 06:16:41;;;;;;;5.93;5.38;;;20.00;97.80;;;;;;5063888;28;20769;-82
2022/05/19 06:19:08;;;;;;;8.13;5.60;;;20.10;97.80;;;;;;5060967;28;20696;-81
2022/05/19 06:21:36;;;;;;;6.40;4.97;;;20.10;97.60;;;;;;5061779;28;20223;-81
2022/05/19 06:24:08;;;;;;;7.93;5.65;;;20.20;97.60;;;;;;5065451;28;20227;-84
2022/05/19 06:26:35;;;;;;;7.75;5.40;;;20.30;97.50;;;;;;5054206;28;20251;-85
2022/05/19 06:29:03;;;;;;;6.97;5.32;;;20.40;97.50;;;;;;5058943;28;20238;-83
2022/05/19 06:31:32;;;;;;;6.22;5.28;;;20.40;97.50;;;;;;5057654;28;20235;-81
2022/05/19 06:33:59;;;;;;;5.80;5.25;;;20.50;97.50;;;;;;5063381;28;20913;-81
2022/05/19 06:36:27;;;;;;;6.05;5.38;;;20.60;97.10;;;;;;5064780;28;20257;-81
2022/05/19 06:38:54;;;;;;;5.82;5.32;;;20.60;97.00;;;;;;5059532;28;20247;-82
2022/05/19 06:44:07;;;;;;;7.53;5.55;;;20.80;96.80;;;;;;5065601;28;20222;-81
2022/05/19 06:46:34;;;;;;;6.88;5.53;;;20.90;96.80;;;;;;5065817;28;20645;-84
2022/05/19 06:49:02;;;;;;;8.85;5.53;;;21.00;96.60;;;;;;5069017;28;20227;-84
2022/05/19 06:51:33;;;;;;;5.43;4.93;;;21.00;96.40;;;;;;5087137;28;20226;-82
2022/05/19 06:54:00;;;;;;;7.00;5.20;;;21.20;96.50;;;;;;5070498;28;20226;-85
2022/05/19 06:56:27;;;;;;;5.18;4.55;;;21.30;96.60;;;;;;5068968;27;20302;-82
2022/05/19 06:58:54;;;;;;;7.63;5.43;;;21.50;96.70;;;;;;5065454;28;20223;-82
2022/05/19 07:01:23;;;;;;;6.68;4.70;;;21.70;96.70;;;;;;5063172;28;20598;-81
2022/05/19 07:03:50;;;;;;;7.05;4.93;;;22.10;96.40;;;;;;5074812;28;20227;-81
2022/05/19 07:06:16;;;;;;;5.80;4.53;;;22.50;96.20;;;;;;5075853;28;20287;-81
2022/05/19 07:08:43;;;;;;;4.95;4.45;;;23.10;95.50;;;;;;5087269;28;20222;-82
2022/05/19 07:11:24;;;;;;;4.65;4.25;;;23.60;95.40;;;;;;5087172;28;20229;-82
2022/05/19 07:13:54;;;;;;;5.55;4.45;;;24.20;94.00;;;;;;5086831;28;20255;-81
2022/05/19 07:16:22;;;;;;;5.53;4.93;;;24.70;93.50;;;;;;5086325;28;20219;-81
2022/05/19 07:18:48;;;;;;;4.63;4.20;;;25.10;91.90;;;;;;5087078;28;20233;-82
2022/05/19 07:21:16;;;;;;;5.68;4.20;;;25.50;92.00;;;;;;5089419;28;20242;-84
2022/05/19 07:23:43;;;;;;;6.82;4.43;;;25.80;91.50;;;;;;5086900;28;20222;-81
2022/05/19 07:26:09;;;;;;;4.25;3.85;;;26.10;90.50;;;;;;5085055;28;20219;-82
2022/05/19 07:28:36;;;;;;;4.85;3.70;;;26.40;90.50;;;;;;5078055;28;20235;-82
2022/05/19 07:31:03;;;;;;;6.50;3.85;;;26.80;90.60;;;;;;5063607;28;20220;-82
2022/05/19 07:33:35;;;;;;;5.90;4.07;;;27.20;90.00;;;;;;5077982;28;20222;-81
2022/05/19 07:36:06;;;;;;;5.22;4.10;;;27.60;88.00;;;;;;5081359;28;20223;-81
2022/05/19 07:38:34;;;;;;;6.50;4.28;;;28.20;85.60;;;;;;5081566;28;20268;-84
2022/05/19 07:41:03;;;;;;;5.32;3.92;;;28.60;83.90;;;;;;5081761;28;20230;-85
2022/05/19 07:43:41;;;;;;;4.88;3.72;;;28.90;82.60;;;;;;5078280;28;20223;-83
2022/05/19 07:46:10;;;;;;;4.82;3.60;;;29.20;81.50;;;;;;5082891;28;20222;-81
2022/05/19 07:48:39;;;;;;;5.50;3.83;;;29.40;80.90;;;;;;5085798;28;20234;-83
2022/05/19 07:51:06;;;;;;;4.43;3.90;;;29.50;78.60;;;;;;5081009;28;20230;-81
2022/05/19 07:53:33;;;;;;;6.80;3.88;;;29.50;78.20;;;;;;5084797;27;20705;-82
2022/05/19 07:56:00;;;;;;;6.15;3.85;;;29.60;78.00;;;;;;5086436;28;20541;-82
2022/05/19 07:58:29;;;;;;;4.53;4.00;;;29.60;77.50;;;;;;5070707;28;20229;-83
2022/05/19 08:00:57;;;;;;;6.00;3.40;;;29.60;76.70;;;;;;5086197;28;20215;-82
2022/05/19 08:03:24;;;;;;;4.07;3.67;;;29.80;77.30;;;;;;5067385;28;20247;-82
2022/05/19 08:05:54;;;;;;;4.15;3.45;;;30.00;77.50;;;;;;5073835;28;20223;-83
2022/05/19 08:08:21;;;;;;;4.65;3.63;;;30.20;73.80;;;;;;5086844;28;20239;-82
2022/05/19 08:10:47;;;;;;;5.07;3.33;;;30.40;74.80;;;;;;5080805;28;20307;-82
2022/05/19 08:16:12;;;;;;;4.90;3.47;;;30.60;71.40;;;;;;5013702;28;20276;-82
2022/05/19 08:18:39;;;;;;;3.65;3.05;;;30.60;70.00;;;;;;5049326;28;20291;-85
2022/05/19 08:21:11;;;;;;;4.90;3.30;;;30.60;70.80;;;;;;5064513;28;20227;-82
2022/05/19 08:23:39;;;;;;;5.07;3.22;;;30.40;70.60;;;;;;5053559;28;20220;-83
2022/05/19 08:26:08;;;;;;;3.28;2.97;;;30.10;70.60;;;;;;5058427;28;20234;-82
2022/05/19 08:28:35;;;;;;;3.28;2.90;;;30.00;71.90;;;;;;5052526;28;20250;-82
2022/05/19 08:31:05;;;;;;;3.40;2.72;;;30.00;73.20;;;;;;5055507;28;20276;-82
2022/05/19 08:33:33;;;;;;;4.65;3.10;;;30.10;72.70;;;;;;5065642;28;20257;-84
2022/05/19 08:36:00;;;;;;;3.92;3.10;;;30.30;70.60;;;;;;5057073;28;20223;-83
2022/05/19 08:38:28;;;;;;;4.50;3.10;;;30.60;70.70;;;;;;5056999;28;20255;-82
2022/05/19 08:40:58;;;;;;;3.75;3.17;;;30.90;70.50;;;;;;5059199;28;20223;-82
2022/05/19 08:43:30;;;;;;;3.70;3.30;;;31.20;69.40;;;;;;5064092;28;20226;-82
2022/05/19 08:46:01;;;;;;;4.53;2.90;;;31.50;68.20;;;;;;5060617;28;20229;-82
2022/05/19 08:48:29;;;;;;;2.95;2.60;;;31.70;65.80;;;;;;5059832;28;20224;-82
2022/05/19 08:50:59;;;;;;;4.18;2.60;;;31.80;65.20;;;;;;5064213;28;20223;-82
2022/05/19 08:53:29;;;;;;;4.85;2.67;;;31.90;64.40;;;;;;5056864;28;20265;-84
2022/05/19 08:56:00;;;;;;;5.43;3.03;;;31.90;62.50;;;;;;5061619;28;20793;-82
2022/05/19 08:58:46;;;;;;;2.95;2.58;;;31.90;62.00;;;;;;5056952;28;20222;-83
2022/05/19 09:01:20;;;;;;;3.22;2.75;;;31.90;61.90;;;;;;5051914;28;20251;-83
2022/05/19 09:03:59;;;;;;;5.35;2.50;;;31.90;62.30;;;;;;5074748;28;20330;-82
2022/05/19 09:06:37;;;;;;;3.55;2.40;;;31.70;60.20;;;;;;5057451;28;20227;-79
2022/05/19 09:09:25;;;;;;;3.13;2.50;;;31.60;60.10;;;;;;5053448;28;20254;-79
2022/05/19 09:11:58;;;;;;;2.65;2.40;;;31.40;59.30;;;;;;5058059;28;20226;-78
2022/05/19 09:14:28;;;;;;;2.55;2.35;;;31.30;60.00;;;;;;5058082;28;20238;-77
2022/05/19 09:16:58;;;;;;;2.55;2.30;;;31.30;60.10;;;;;;5059544;28;20230;-78
2022/05/19 09:19:30;;;;;;;3.00;2.00;;;31.20;60.90;;;;;;5058437;28;20233;-78
2022/05/19 09:22:04;;;;;;;3.05;2.53;;;31.30;61.60;;;;;;5066371;28;20262;-78
2022/05/19 09:24:32;;;;;;;4.78;2.42;;;31.30;61.10;;;;;;5052164;28;20223;-77
2022/05/19 09:27:01;;;;;;;2.38;2.17;;;31.60;61.10;;;;;;5059671;28;20265;-79
2022/05/19 09:29:33;;;;;;;3.80;2.33;;;31.80;59.90;;;;;;5064335;28;20286;-79
2022/05/19 09:32:07;;;;;;;2.88;2.25;;;32.10;58.00;;;;;;5056632;28;20235;-79
2022/05/19 09:34:42;;;;;;;3.50;2.30;;;32.30;56.90;;;;;;5055170;28;20354;-79
2022/05/19 09:37:12;;;;;;;6.03;1.90;;;32.60;58.00;;;;;;5058222;28;20294;-78
2022/05/19 09:39:48;;;;;;;3.72;2.30;;;32.70;57.60;;;;;;5059094;28;20451;-79
2022/05/19 09:42:23;;;;;;;6.32;2.00;;;32.90;56.60;;;;;;5056831;28;20313;-78
2022/05/19 09:44:55;;;;;;;3.97;2.28;;;33.00;56.10;;;;;;5061428;28;20223;-79
2022/05/19 09:47:28;;;;;;;4.10;2.20;;;33.10;56.50;;;;;;5065006;28;20223;-79
2022/05/19 09:49:57;;;;;;;3.22;2.00;;;33.20;55.40;;;;;;5067658;28;20619;-79
2022/05/19 09:52:27;;;;;;;2.65;1.92;;;33.30;55.60;;;;;;5060400;28;20809;-79
2022/05/19 09:55:00;;;;;;;2.30;2.05;;;33.40;56.20;;;;;;5083553;28;20215;-80
2022/05/19 09:57:34;;;;;;;2.33;1.92;;;33.50;54.10;;;;;;5082545;27;20223;-77
2022/05/19 10:00:06;;;;;;;3.22;2.47;;;33.60;53.60;;;;;;5072146;28;20242;-79
2022/05/19 10:02:44;;;;;;;2.70;2.13;;;33.70;52.60;;;;;;5063140;28;20259;-79
2022/05/19 10:05:23;;;;;;;3.78;2.20;;;33.70;52.50;;;;;;5069456;28;20254;-79
2022/05/19 10:07:52;;;;;;;3.97;2.20;;;33.70;51.80;;;;;;5064495;28;20273;-80
2022/05/19 10:10:29;;;;;;;2.60;2.20;;;33.70;52.60;;;;;;5051080;28;20610;-79
2022/05/19 10:13:02;;;;;;;3.70;2.30;;;33.80;52.90;;;;;;5055600;28;20235;-79
2022/05/19 10:15:41;;;;;;;3.63;2.42;;;34.00;53.30;;;;;;5068348;28;20618;-77
2022/05/19 10:18:16;;;;;;;2.90;2.10;;;34.20;52.30;;;;;;5064769;28;20246;-78
2022/05/19 10:20:48;;;;;;;3.45;2.17;;;34.20;50.40;;;;;;5069642;28;20222;-79
2022/05/19 10:23:36;;;;;;;4.45;2.47;;;34.20;51.90;;;;;;5078259;28;20342;-80
2022/05/19 10:26:15;;;;;;;2.92;2.17;;;34.20;50.10;;;;;;5063215;28;20414;-79
2022/05/19 10:31:53;;;;;;;3.03;2.00;;;34.10;51.90;;;;;;5060979;28;20231;-80
2022/05/19 10:34:38;;;;;;;2.03;1.90;;;34.10;49.80;;;;;;5068622;28;20226;-79
2022/05/19 10:37:13;;;;;;;3.72;2.03;;;34.00;49.70;;;;;;5069108;28;20220;-79
2022/05/19 10:39:58;;;;;;;3.35;2.10;;;33.80;50.20;;;;;;5088322;28;20222;-80
2022/05/19 10:42:33;;;;;;;3.13;2.08;;;33.60;50.50;;;;;;5083514;28;20322;-79
2022/05/19 10:45:16;;;;;;;2.80;2.55;;;33.30;50.70;;;;;;5074915;27;20219;-79
2022/05/19 10:47:59;;;;;;;3.50;2.55;;;33.10;51.10;;;;;;5083270;28;20805;-79
2022/05/19 10:50:29;;;;;;;2.53;2.33;;;32.90;51.80;;;;;;5079844;27;20651;-81
2022/05/19 10:53:10;;;;;;;3.10;2.30;;;32.90;52.00;;;;;;5082064;28;20254;-79
2022/05/19 10:55:50;;;;;;;3.45;2.38;;;32.70;50.30;;;;;;5081277;28;20284;-80
2022/05/19 10:58:43;;;;;;;2.53;2.33;;;32.60;52.00;;;;;;5087291;27;20232;-80
2022/05/19 11:01:22;;;;;;;5.75;2.15;;;32.60;52.80;;;;;;5077407;28;20228;-80
2022/05/19 11:04:25;;;;;;;4.82;2.40;;;32.60;53.10;;;;;;5059837;28;20321;-80
2022/05/19 11:07:15;;;;;;;4.15;2.17;;;32.80;52.60;;;;;;5047460;28;20227;-79
2022/05/19 11:09:52;;;;;;;3.38;2.10;;;33.00;51.50;;;;;;5074609;28;20536;-80
2022/05/19 11:12:30;;;;;;;4.80;2.72;;;33.20;51.40;;;;;;5085505;28;20223;-79
2022/05/19 11:15:11;;;;;;;2.88;2.17;;;33.30;50.60;;;;;;5086006;28;20290;-79
2022/05/19 11:17:49;;;;;;;5.90;2.30;;;33.50;50.50;;;;;;5086140;27;20264;-80
2022/05/19 11:20:21;;;;;;;5.60;2.35;;;33.70;50.70;;;;;;5086313;27;20232;-80
2022/05/19 11:22:52;;;;;;;4.22;2.63;;;33.90;50.00;;;;;;5085689;28;20226;-80
2022/05/19 11:28:19;;;;;;;5.18;2.60;;;34.30;49.50;;;;;;5081300;28;20787;-80
2022/05/19 11:30:55;;;;;;;2.78;2.38;;;34.50;48.60;;;;;;5083869;28;20215;-80
2022/05/19 11:33:25;;;;;;;2.42;2.00;;;34.70;48.70;;;;;;5074114;27;20389;-80
2022/05/19 11:35:58;;;;;;;4.45;2.45;;;34.90;47.80;;;;;;5084520;28;20218;-80
2022/05/19 11:38:32;;;;;;;3.67;2.63;;;35.10;47.70;;;;;;5085432;27;20222;-80
2022/05/19 11:41:04;;;;;;;3.95;2.30;;;35.40;47.90;;;;;;5082277;28;20362;-80
2022/05/19 11:43:36;;;;;;;2.67;2.33;;;35.60;47.80;;;;;;5084151;28;20246;-80
2022/05/19 11:46:08;;;;;;;4.18;2.30;;;35.70;47.00;;;;;;5082701;28;20210;-80
2022/05/19 11:57:12;;;;;;;4.38;2.35;;;36.00;46.50;;;;;;5077590;28;20255;-80
2022/05/19 11:59:39;;;;;;;3.75;2.70;;;36.10;46.20;;;;;;5082889;28;20283;-80
2022/05/19 12:02:11;;;;;;;2.58;2.38;;;36.20;45.90;;;;;;5085137;28;20876;-80
2022/05/19 12:04:41;;;;;;;3.38;2.42;;;36.10;44.80;;;;;;5081672;27;20242;-80
2022/05/19 12:07:15;;;;;;;3.15;2.22;;;36.10;45.00;;;;;;5085032;27;20227;-80
2022/05/19 12:09:47;;;;;;;2.22;2.03;;;36.10;45.60;;;;;;5083018;28;20283;-80
2022/05/19 12:12:21;;;;;;;2.45;2.25;;;36.10;45.30;;;;;;5084843;27;20230;-80
2022/05/19 12:15:02;;;;;;;3.05;2.58;;;36.10;45.30;;;;;;5084316;28;20226;-80
2022/05/19 12:17:39;;;;;;;3.53;2.55;;;36.20;45.20;;;;;;5085814;28;20234;-80
2022/05/19 12:20:51;;;;;;;3.10;2.47;;;36.30;45.00;;;;;;5081981;27;20232;-80
2022/05/19 12:23:28;;;;;;;4.40;2.90;;;36.40;45.00;;;;;;5079495;28;20238;-80
2022/05/19 12:25:59;;;;;;;3.25;2.50;;;36.60;45.20;;;;;;5089082;28;20309;-80
2022/05/19 12:28:38;;;;;;;3.60;2.47;;;36.60;44.30;;;;;;5085465;28;20226;-81
2022/05/19 12:34:03;;;;;;;2.65;2.45;;;36.20;43.80;;;;;;5077543;28;20310;-80
2022/05/19 12:36:43;;;;;;;5.07;2.58;;;35.90;43.10;;;;;;5080228;28;20256;-80
2022/05/19 12:39:30;;;;;;;2.78;2.30;;;35.70;44.30;;;;;;5071940;28;20223;-80
2022/05/19 12:42:11;;;;;;;4.88;2.78;;;35.40;44.60;;;;;;5070044;28;20793;-79
2022/05/19 12:44:46;;;;;;;2.60;2.40;;;35.30;45.40;;;;;;5073967;28;20217;-80
2022/05/19 12:47:20;;;;;;;2.78;2.58;;;35.20;45.40;;;;;;5080949;28;20210;-80
2022/05/19 12:50:23;;;;;;;3.38;2.38;;;35.20;45.10;;;;;;5063959;28;20227;-79
2022/05/19 12:52:59;;;;;;;4.75;2.30;;;35.20;45.00;;;;;;5044458;28;20326;-79
2022/05/19 12:55:50;;;;;;;2.67;2.25;;;35.10;44.60;;;;;;5058259;28;20335;-79
2022/05/19 12:58:50;;;;;;;4.20;2.17;;;34.90;43.10;;;;;;5060032;28;20223;-80
2022/05/19 13:01:25;;;;;;;2.38;2.15;;;34.80;44.00;;;;;;5059725;28;20219;-79
2022/05/19 13:04:00;;;;;;;1.85;1.70;;;34.60;44.20;;;;;;5060742;28;20288;-79
2022/05/19 13:06:29;;;;;;;3.38;2.22;;;34.40;44.50;;;;;;5053931;28;20306;-79
2022/05/19 13:09:01;;;;;;;3.60;1.95;;;34.20;45.10;;;;;;5056222;28;20216;-79
2022/05/19 13:11:31;;;;;;;3.08;2.00;;;34.00;44.10;;;;;;5061937;28;20227;-79
2022/05/19 13:14:02;;;;;;;2.78;2.15;;;33.80;44.30;;;;;;5060993;28;20232;-79
2022/05/19 13:16:31;;;;;;;2.30;2.10;;;33.60;44.40;;;;;;5056539;28;20302;-79
2022/05/19 13:19:04;;;;;;;3.05;2.13;;;33.30;44.40;;;;;;5058605;28;20650;-79
2022/05/19 13:21:34;;;;;;;3.45;2.30;;;33.20;45.20;;;;;;5056981;28;20227;-78
2022/05/19 13:24:06;;;;;;;3.88;2.22;;;33.00;45.80;;;;;;5057843;28;20806;-78
2022/05/19 13:26:35;;;;;;;2.42;2.22;;;33.00;46.60;;;;;;5067775;28;20940;-79
2022/05/19 13:31:57;;;;;;;2.72;2.50;;;32.90;46.20;;;;;;5058735;28;20231;-79
2022/05/19 13:34:24;;;;;;;2.97;2.20;;;32.90;46.30;;;;;;5061245;28;20344;-77